Time;durP1;ratioP1;P1;durP2;ratioP2;P2;SDS_P1;SDS_P2;PMS_P1;PMS_P2;Temp;Humidity;BMP_temperature;BMP_pressure;BME280_temperature;BME280_humidity;BME280_pressure;Samples;Min_cycle;Max_cycle;Signal;HPM_P1;HPM_P2
2022/09/18 00:00:55;;;;;;;2.95;0.60;;;;;;;22.33;55.87;97415.13;4997774;28;20032;-73
2022/09/18 00:03:20;;;;;;;1.38;0.50;;;;;;;22.29;55.87;97420.06;4997951;28;20037;-73
2022/09/18 00:05:46;;;;;;;4.88;0.57;;;;;;;22.32;56.03;97429.47;4997988;28;20470;-72
2022/09/18 00:08:11;;;;;;;7.25;0.73;;;;;;;22.30;55.93;97429.69;4997447;28;20037;-73
2022/09/18 00:10:41;;;;;;;2.72;0.52;;;;;;;22.29;55.80;97428.03;4997538;28;20025;-72
2022/09/18 00:13:08;;;;;;;2.35;0.43;;;;;;;22.27;55.51;97431.97;4983416;28;20037;-72
2022/09/18 00:15:33;;;;;;;4.20;0.82;;;;;;;22.24;55.55;97417.25;5017874;28;20112;-73
2022/09/18 00:17:59;;;;;;;2.67;0.45;;;;;;;22.21;55.79;97415.06;5017979;28;20038;-73
2022/09/18 00:20:24;;;;;;;3.53;0.47;;;;;;;22.21;55.58;97421.16;5001424;28;20496;-73
2022/09/18 00:22:50;;;;;;;2.00;0.60;;;;;;;22.17;55.75;97425.34;5035200;28;20037;-73
2022/09/18 00:25:15;;;;;;;3.58;0.65;;;;;;;22.19;55.93;97436.53;5017501;28;20029;-73
2022/09/18 00:27:41;;;;;;;2.45;0.80;;;;;;;22.15;55.94;97438.00;5017288;28;20029;-73
2022/09/18 00:30:07;;;;;;;3.72;0.63;;;;;;;22.12;56.03;97438.44;5035226;28;20053;-73
2022/09/18 00:32:32;;;;;;;3.75;0.60;;;;;;;22.15;55.86;97472.56;5017735;28;20029;-73
2022/09/18 00:34:57;;;;;;;3.15;0.60;;;;;;;;;;5017105;28;20038;-73
2022/09/18 00:37:23;;;;;;;4.85;0.60;;;;;;;22.08;55.93;97457.75;5016217;28;20560;-73
2022/09/18 00:39:48;;;;;;;4.70;0.45;;;;;;;22.05;56.11;97459.78;5016615;28;20037;-73
2022/09/18 00:42:14;;;;;;;1.50;0.40;;;;;;;22.05;55.86;97459.00;4984409;28;20044;-73
2022/09/18 00:44:49;;;;;;;2.85;0.47;;;;;;;22.02;55.96;97464.75;5016917;28;20041;-73
2022/09/18 00:47:36;;;;;;;3.55;0.55;;;;;;;22.00;55.86;97462.31;5001667;28;20463;-73
2022/09/18 00:50:19;;;;;;;0.50;0.30;;;;;;;21.95;56.18;97448.06;5034716;28;20539;-73
2022/09/18 00:53:00;;;;;;;3.83;0.70;;;;;;;21.98;56.04;97475.00;5017001;28;20071;-73
2022/09/18 00:55:31;;;;;;;3.55;0.47;;;;;;;21.97;56.19;97478.69;5034974;28;20040;-73
2022/09/18 00:57:57;;;;;;;2.95;0.50;;;;;;;21.96;56.33;97485.03;5000815;28;20036;-73
2022/09/18 01:00:23;;;;;;;1.55;0.45;;;;;;;21.96;56.15;97481.56;4999974;28;20083;-73
2022/09/18 01:02:48;;;;;;;1.83;0.68;;;;;;;21.96;56.29;97478.91;5000277;28;20100;-73
2022/09/18 01:05:16;;;;;;;5.10;0.60;;;;;;;21.96;55.96;97462.97;5000500;28;20120;-73
2022/09/18 01:07:51;;;;;;;4.63;0.60;;;;;;;21.96;56.10;97468.28;5000235;28;20037;-73
2022/09/18 01:10:30;;;;;;;3.10;0.70;;;;;;;21.95;56.25;97480.78;5017193;28;20025;-73
2022/09/18 01:12:59;;;;;;;5.13;0.50;;;;;;;21.90;56.23;97470.00;5018261;28;20028;-73
2022/09/18 01:15:27;;;;;;;1.08;0.50;;;;;;;21.93;56.37;97468.72;5016396;28;20033;-73
2022/09/18 01:18:04;;;;;;;;;;;;;;;21.92;56.00;97469.75;5034429;28;20378;-73
2022/09/18 01:20:52;;;;;;;4.37;0.80;;;;;;;21.87;56.27;97473.09;5016664;28;19963;-73
2022/09/18 01:23:29;;;;;;;4.13;0.60;;;;;;;21.85;55.87;97473.31;5033520;28;20028;-73
2022/09/18 01:26:19;;;;;;;2.92;0.73;;;;;;;21.84;56.29;97455.75;5033992;28;20044;-73
2022/09/18 01:29:33;;;;;;;4.63;1.08;;;;;;;21.85;56.20;97453.88;5034103;28;20065;-73
2022/09/18 01:32:19;;;;;;;3.15;0.85;;;;;;;21.83;56.30;97443.50;5016109;28;20084;-73
2022/09/18 01:34:57;;;;;;;3.72;1.10;;;;;;;21.82;56.66;97433.91;5001305;28;20071;-73
2022/09/18 01:37:28;;;;;;;2.40;1.00;;;;;;;21.83;56.67;97432.88;5016289;28;20481;-73
2022/09/18 01:40:11;;;;;;;3.50;1.42;;;;;;;21.84;56.68;97426.53;5015795;28;20069;-73
2022/09/18 01:42:37;;;;;;;3.90;1.30;;;;;;;21.79;56.75;97423.72;5016314;28;20029;-73
2022/09/18 01:45:06;;;;;;;3.63;1.10;;;;;;;21.87;56.82;97427.94;4999555;28;20029;-73
2022/09/18 01:47:38;;;;;;;3.97;1.17;;;;;;;21.90;56.65;97434.63;5014831;28;20523;-73
2022/09/18 01:50:04;;;;;;;3.85;0.90;;;;;;;21.90;56.32;97426.66;5000156;28;20033;-73
2022/09/18 01:52:37;;;;;;;4.25;1.15;;;;;;;21.95;56.41;97429.47;5015964;28;20370;-73
2022/09/18 01:55:03;;;;;;;5.68;1.27;;;;;;;21.92;56.47;97420.09;4982921;28;20052;-73
2022/09/18 01:57:47;;;;;;;4.32;1.05;;;;;;;21.86;56.53;97415.69;4999491;28;20034;-73
2022/09/18 02:00:13;;;;;;;2.83;1.23;;;;;;;21.90;56.64;97426.66;4999914;28;20036;-73
2022/09/18 02:02:49;;;;;;;4.88;1.30;;;;;;;21.86;56.61;97432.41;5015741;28;20025;-73
2022/09/18 02:05:19;;;;;;;4.63;1.10;;;;;;;21.83;56.64;97432.88;5016859;28;20508;-73
2022/09/18 02:07:49;;;;;;;9.43;1.30;;;;;;;21.80;56.63;97424.53;4999319;28;20100;-73
2022/09/18 02:10:14;;;;;;;4.40;0.82;;;;;;;21.80;56.43;97435.16;4999539;28;20448;-73
2022/09/18 02:12:40;;;;;;;5.20;1.15;;;;;;;21.75;56.49;97433.16;4983370;28;20025;-73
2022/09/18 02:15:09;;;;;;;4.25;1.20;;;;;;;21.71;56.54;97431.16;4999175;28;20033;-73
2022/09/18 02:17:45;;;;;;;2.30;1.10;;;;;;;21.72;56.80;97441.56;5015464;28;20108;-73
2022/09/18 02:20:19;;;;;;;8.98;0.73;;;;;;;21.71;56.82;97452.41;5014716;28;20049;-73
2022/09/18 02:22:45;;;;;;;6.55;1.02;;;;;;;21.69;56.29;97468.56;4983400;28;20036;-73
2022/09/18 02:25:11;;;;;;;2.80;1.10;;;;;;;21.63;56.67;97464.13;4998891;28;20029;-73
2022/09/18 02:27:37;;;;;;;4.65;1.13;;;;;;;21.66;56.61;97471.66;4982554;28;20071;-73
2022/09/18 02:30:03;;;;;;;3.00;0.90;;;;;;;21.66;56.29;97484.94;5014686;28;20049;-73
2022/09/18 02:32:28;;;;;;;2.35;1.00;;;;;;;21.64;56.48;97468.41;4998893;28;20033;-73
2022/09/18 02:34:54;;;;;;;3.97;0.95;;;;;;;21.63;56.45;97474.75;4998066;28;20442;-73
2022/09/18 02:37:40;;;;;;;4.22;0.88;;;;;;;21.61;56.04;97471.50;4998484;28;20033;-73
2022/09/18 02:40:13;;;;;;;2.45;1.00;;;;;;;21.58;56.37;97467.44;4999721;28;20501;-73
2022/09/18 02:42:41;;;;;;;7.85;0.88;;;;;;;21.50;56.50;97455.25;4998586;28;20029;-73
2022/09/18 02:45:25;;;;;;;3.35;0.80;;;;;;;21.52;56.47;97463.00;4998447;28;20509;-73
2022/09/18 02:48:24;;;;;;;3.70;0.60;;;;;;;21.45;56.37;97452.41;5032067;28;20103;-73
2022/09/18 02:50:58;;;;;;;6.10;0.90;;;;;;;21.44;56.35;97458.78;5017377;28;20049;-73
2022/09/18 02:53:35;;;;;;;3.28;0.70;;;;;;;21.40;56.38;97465.53;5014860;28;20090;-73
2022/09/18 02:56:26;;;;;;;5.22;1.13;;;;;;;21.42;56.51;97474.09;4999619;28;20099;-73
2022/09/18 02:58:57;;;;;;;4.13;0.80;;;;;;;21.43;56.23;97473.06;4958316;28;20070;-73
2022/09/18 03:01:23;;;;;;;4.22;0.70;;;;;;;21.41;56.22;97474.31;4956089;28;20086;-73
2022/09/18 03:03:49;;;;;;;3.00;0.70;;;;;;;21.42;56.14;97484.69;4939286;28;20049;-73
2022/09/18 03:06:15;;;;;;;2.10;0.65;;;;;;;21.41;56.26;97488.41;4955449;28;20039;-73
2022/09/18 03:08:40;;;;;;;1.98;0.68;;;;;;;21.42;56.12;97491.88;4955299;28;20034;-73
2022/09/18 03:11:06;;;;;;;4.05;0.73;;;;;;;21.37;56.41;97481.91;4971527;28;20474;-73
2022/09/18 03:13:32;;;;;;;2.95;0.80;;;;;;;21.39;56.39;97487.78;4955359;28;20037;-73
2022/09/18 03:15:57;;;;;;;4.35;0.85;;;;;;;21.39;56.34;97487.00;4955072;28;20530;-73
2022/09/18 03:18:23;;;;;;;6.10;0.77;;;;;;;21.42;56.55;97494.53;4971238;28;20384;-73
2022/09/18 03:20:48;;;;;;;2.85;0.68;;;;;;;21.43;56.55;97502.25;4970978;28;20039;-73
2022/09/18 03:23:13;;;;;;;9.13;0.73;;;;;;;21.42;56.33;97495.31;4954981;28;20414;-73
2022/09/18 03:25:39;;;;;;;4.35;0.90;;;;;;;21.46;56.79;97501.84;4938853;28;20043;-73
2022/09/18 03:28:04;;;;;;;5.85;0.95;;;;;;;21.50;56.68;97513.66;4954919;28;20031;-73
2022/09/18 03:30:30;;;;;;;1.30;0.70;;;;;;;21.52;56.79;97524.06;4970753;28;20055;-73
2022/09/18 03:32:56;;;;;;;3.03;0.80;;;;;;;21.50;56.86;97521.63;4970515;28;20058;-73
2022/09/18 03:35:21;;;;;;;3.72;1.10;;;;;;;21.53;56.89;97514.28;4971061;28;20041;-73
2022/09/18 03:37:47;;;;;;;2.05;0.77;;;;;;;21.56;56.46;97519.94;4997795;28;20044;-74
2022/09/18 03:40:14;;;;;;;2.65;0.70;;;;;;;21.54;56.91;97518.53;5014023;28;20493;-73
2022/09/18 03:42:42;;;;;;;2.97;0.80;;;;;;;21.57;56.69;97520.75;5014427;28;20041;-73
2022/09/18 03:45:08;;;;;;;5.22;0.88;;;;;;;21.58;57.03;97525.03;4997961;28;20375;-72
2022/09/18 03:47:33;;;;;;;2.85;0.90;;;;;;;21.58;56.99;97522.38;5017352;28;20036;-73
2022/09/18 03:49:59;;;;;;;3.67;1.00;;;;;;;21.57;56.72;97532.22;5035934;28;20247;-73
2022/09/18 03:52:24;;;;;;;3.50;1.05;;;;;;;21.55;56.93;97542.22;5001211;28;20044;-72
2022/09/18 03:54:50;;;;;;;2.28;1.17;;;;;;;21.52;56.51;97531.22;5018100;28;20034;-74
2022/09/18 03:57:15;;;;;;;3.25;1.10;;;;;;;21.50;56.58;97526.13;5001662;28;20396;-74
2022/09/18 03:59:40;;;;;;;3.10;1.27;;;;;;;21.53;56.34;97533.66;5001975;28;20033;-73
2022/09/18 04:02:06;;;;;;;2.83;1.50;;;;;;;21.51;56.38;97535.72;5035800;28;20033;-73
2022/09/18 04:04:32;;;;;;;3.55;1.42;;;;;;;21.59;56.11;97551.38;5017910;28;20032;-73
2022/09/18 04:06:57;;;;;;;4.70;1.40;;;;;;;21.78;55.37;97548.78;5035174;28;20400;-73
2022/09/18 04:09:23;;;;;;;5.90;1.27;;;;;;;22.07;54.61;97557.09;5001404;28;20401;-73
2022/09/18 04:11:49;;;;;;;5.13;1.52;;;;;;;22.15;54.11;97564.78;5017599;28;20032;-73
2022/09/18 04:14:14;;;;;;;3.13;1.40;;;;;;;22.14;54.05;97550.69;5001850;28;20033;-73
2022/09/18 04:16:40;;;;;;;3.05;1.25;;;;;;;22.11;54.12;97564.41;5001238;28;20092;-73
2022/09/18 04:19:05;;;;;;;2.78;1.20;;;;;;;22.37;53.38;97563.31;5035471;28;20041;-72
2022/09/18 04:21:31;;;;;;;2.15;1.38;;;;;;;23.25;51.01;97560.41;5017469;28;20033;-73
2022/09/18 04:23:57;;;;;;;2.10;1.00;;;;;;;23.17;51.06;97574.06;5001670;28;20025;-73
2022/09/18 04:26:25;;;;;;;5.13;1.60;;;;;;;22.90;51.30;97569.06;5001030;28;20386;-73
2022/09/18 04:28:50;;;;;;;1.65;0.98;;;;;;;22.93;51.28;97581.91;5017602;28;20041;-74
2022/09/18 04:31:16;;;;;;;3.38;1.20;;;;;;;24.16;47.86;97589.50;5017523;28;20032;-73
2022/09/18 04:33:41;;;;;;;6.10;1.50;;;;;;;25.16;45.26;97597.41;5007396;28;20413;-73
2022/09/18 04:36:07;;;;;;;2.85;1.15;;;;;;;26.07;42.98;97620.63;4980648;28;20148;-73
2022/09/18 04:38:32;;;;;;;3.45;1.00;;;;;;;26.74;40.92;97630.41;5015125;28;20030;-73
2022/09/18 04:40:58;;;;;;;5.68;1.20;;;;;;;27.51;38.56;97631.25;5015041;28;20026;-74
2022/09/18 04:43:25;;;;;;;2.88;1.10;;;;;;;27.55;37.20;97644.97;4965120;28;20034;-73
2022/09/18 04:45:50;;;;;;;2.05;1.20;;;;;;;28.45;35.97;97657.72;4981459;28;20486;-74
2022/09/18 04:48:16;;;;;;;2.28;1.10;;;;;;;29.26;34.60;97672.66;5014630;28;20033;-74
2022/09/18 04:50:42;;;;;;;4.10;1.30;;;;;;;29.95;32.78;97676.00;4997751;28;20512;-74
2022/09/18 04:53:07;;;;;;;1.98;1.00;;;;;;;30.64;31.96;97690.75;4965054;28;20061;-74
2022/09/18 04:55:33;;;;;;;2.38;1.02;;;;;;;31.28;31.02;97699.19;4980765;28;20041;-74
2022/09/18 04:57:58;;;;;;;2.58;1.10;;;;;;;31.59;30.91;97703.63;4963756;28;20553;-74
2022/09/18 05:00:24;;;;;;;1.55;0.80;;;;;;;32.00;30.24;97712.22;4964605;28;20048;-74
2022/09/18 05:02:50;;;;;;;2.03;1.08;;;;;;;32.55;29.34;97712.03;4996646;28;20049;-75
2022/09/18 05:05:15;;;;;;;4.13;1.13;;;;;;;31.33;31.24;97736.09;4997095;28;20105;-74
2022/09/18 05:07:41;;;;;;;3.17;1.20;;;;;;;30.87;32.26;97736.22;4997327;28;20045;-76
2022/09/18 05:10:09;;;;;;;5.43;1.50;;;;;;;30.51;31.97;97741.69;4984001;28;20413;-75
2022/09/18 05:12:35;;;;;;;4.47;1.67;;;;;;;29.65;33.82;97743.97;5017140;28;20042;-76
2022/09/18 05:15:00;;;;;;;5.53;1.20;;;;;;;29.00;35.21;97737.03;5016618;28;20108;-74
2022/09/18 05:17:26;;;;;;;2.05;1.10;;;;;;;29.54;34.36;97748.53;5000121;28;20420;-73
2022/09/18 05:19:51;;;;;;;5.85;1.10;;;;;;;30.80;32.29;97760.75;5016527;28;20413;-73
2022/09/18 05:22:17;;;;;;;3.78;1.10;;;;;;;30.64;33.10;97762.66;4999891;28;20041;-73
2022/09/18 05:24:42;;;;;;;2.10;1.10;;;;;;;29.72;33.94;97758.78;5016282;28;20104;-75
2022/09/18 05:27:08;;;;;;;1.92;0.90;;;;;;;29.14;35.30;97766.09;4999978;28;20417;-74
2022/09/18 05:29:34;;;;;;;3.78;0.80;;;;;;;29.26;34.57;97765.91;5016122;28;20061;-75
2022/09/18 05:32:00;;;;;;;2.58;0.80;;;;;;;28.66;35.18;97768.78;4983944;28;20043;-74
2022/09/18 05:34:25;;;;;;;1.30;0.82;;;;;;;28.24;36.05;97781.00;5016181;28;20022;-75
2022/09/18 05:36:51;;;;;;;2.40;0.75;;;;;;;27.77;36.75;97787.00;4999881;28;20029;-75
2022/09/18 05:39:16;;;;;;;1.25;0.63;;;;;;;27.37;37.59;97782.75;5000079;28;20033;-75
2022/09/18 05:41:42;;;;;;;4.47;0.70;;;;;;;26.99;38.36;97795.09;5015605;28;20390;-76
2022/09/18 05:44:07;;;;;;;8.38;0.70;;;;;;;26.53;39.03;97785.31;5016069;28;20037;-74
2022/09/18 05:46:32;;;;;;;2.75;0.80;;;;;;;26.19;40.37;97800.53;5015618;28;20033;-74
2022/09/18 05:48:58;;;;;;;1.73;0.68;;;;;;;25.86;41.01;97787.88;5007550;28;20034;-75
2022/09/18 05:51:24;;;;;;;2.55;0.60;;;;;;;25.77;41.44;97803.47;4980756;28;20026;-74
2022/09/18 05:53:49;;;;;;;1.20;0.60;;;;;;;25.71;41.36;97810.56;4996176;28;20034;-74
2022/09/18 05:56:15;;;;;;;5.10;0.80;;;;;;;25.64;41.90;97815.25;4979515;28;20049;-74
2022/09/18 05:58:41;;;;;;;1.55;0.50;;;;;;;25.49;42.26;97804.25;4979678;28;20081;-75
2022/09/18 06:01:06;;;;;;;1.25;0.60;;;;;;;25.30;42.90;97807.06;4996153;28;20033;-74
2022/09/18 06:03:32;;;;;;;0.75;0.40;;;;;;;25.10;43.67;97802.09;4963097;28;20569;-75
2022/09/18 06:05:57;;;;;;;1.48;0.50;;;;;;;24.94;43.92;97808.97;4996100;28;20490;-74
2022/09/18 06:08:23;;;;;;;0.82;0.52;;;;;;;24.81;44.50;97815.34;4979587;28;20029;-74
2022/09/18 06:10:49;;;;;;;1.77;0.57;;;;;;;24.70;44.41;97821.47;5012498;28;20034;-75
2022/09/18 06:13:15;;;;;;;1.40;0.85;;;;;;;24.64;44.42;97815.22;4979779;28;20404;-73
2022/09/18 06:15:46;;;;;;;1.77;1.00;;;;;;;24.58;44.39;97832.13;4979038;28;20053;-75
2022/09/18 06:18:13;;;;;;;3.25;1.10;;;;;;;24.45;44.74;97837.63;4979347;28;20037;-73
2022/09/18 06:20:41;;;;;;;2.38;1.02;;;;;;;24.37;44.92;97849.47;4980034;28;20029;-75
2022/09/18 06:23:07;;;;;;;4.72;1.17;;;;;;;24.28;45.25;97856.97;4983136;28;20029;-74
2022/09/18 06:25:33;;;;;;;8.45;1.20;;;;;;;24.17;45.39;97863.06;5015354;28;20546;-75
2022/09/18 06:27:59;;;;;;;2.85;0.80;;;;;;;24.08;45.29;97861.75;4998741;28;20037;-75
2022/09/18 06:30:29;;;;;;;2.13;0.88;;;;;;;24.03;45.61;97878.41;5015040;28;20050;-75
2022/09/18 06:32:55;;;;;;;1.77;0.75;;;;;;;24.00;45.53;97877.03;4982630;28;20029;-75
2022/09/18 06:35:21;;;;;;;2.83;0.80;;;;;;;24.01;45.19;97878.66;4999029;28;20410;-74
2022/09/18 06:37:47;;;;;;;1.73;0.90;;;;;;;24.00;45.41;97877.03;4998594;28;20033;-73
2022/09/18 06:40:12;;;;;;;1.63;0.82;;;;;;;24.08;45.24;97893.75;4998444;28;20037;-74
2022/09/18 06:42:38;;;;;;;2.90;0.90;;;;;;;24.07;44.73;97882.28;5032628;28;20497;-74
2022/09/18 06:45:04;;;;;;;1.33;0.80;;;;;;;24.10;44.53;97900.50;4982135;28;20507;-74
2022/09/18 06:47:29;;;;;;;2.65;0.90;;;;;;;24.00;44.40;97903.69;4982458;28;20056;-74
2022/09/18 06:49:55;;;;;;;5.90;0.93;;;;;;;23.94;44.53;97912.56;4998634;28;20029;-75
2022/09/18 06:52:20;;;;;;;8.15;1.13;;;;;;;23.94;44.69;97920.56;4998429;28;20037;-74
2022/09/18 06:54:46;;;;;;;1.55;1.10;;;;;;;23.88;44.94;97921.47;4998497;28;20033;-73
2022/09/18 06:57:11;;;;;;;3.38;0.80;;;;;;;23.83;45.49;97926.59;4998124;28;20041;-75
2022/09/18 06:59:37;;;;;;;2.75;0.77;;;;;;;23.86;45.23;97938.69;4999582;28;20034;-76
2022/09/18 07:02:04;;;;;;;1.75;0.85;;;;;;;23.81;45.40;97932.16;4979398;28;20484;-74
2022/09/18 07:04:29;;;;;;;1.50;0.85;;;;;;;23.82;45.46;97927.66;4995194;28;20022;-75
2022/09/18 07:06:54;;;;;;;6.05;0.73;;;;;;;23.90;44.98;97945.22;4995455;28;20072;-74
2022/09/18 07:09:20;;;;;;;0.90;0.60;;;;;;;23.92;44.83;97953.81;4994860;28;20136;-74
2022/09/18 07:11:46;;;;;;;1.88;0.70;;;;;;;23.97;44.78;97946.78;4978752;28;20049;-76
2022/09/18 07:14:11;;;;;;;1.23;0.80;;;;;;;24.03;44.63;97955.72;4962718;28;20060;-74
2022/09/18 07:16:37;;;;;;;0.95;0.68;;;;;;;24.08;44.01;97958.53;4978819;28;20038;-74
2022/09/18 07:19:02;;;;;;;1.35;0.70;;;;;;;24.07;43.44;97969.41;4994984;28;20030;-75
2022/09/18 07:21:28;;;;;;;2.85;0.90;;;;;;;24.07;42.48;97966.75;4964598;28;20030;-74
2022/09/18 07:23:54;;;;;;;2.25;0.70;;;;;;;24.03;41.90;97972.53;4982284;28;20042;-75
2022/09/18 07:26:19;;;;;;;1.10;0.60;;;;;;;23.95;41.14;97974.69;5016577;28;20068;-74
2022/09/18 07:28:45;;;;;;;1.52;0.70;;;;;;;23.94;41.13;97965.88;4998802;28;20466;-73
2022/09/18 07:31:10;;;;;;;2.20;0.77;;;;;;;23.93;40.15;97972.25;4998958;28;20112;-74
2022/09/18 07:33:36;;;;;;;1.20;0.70;;;;;;;23.91;39.73;97981.47;4982517;28;20029;-75
2022/09/18 07:36:02;;;;;;;1.52;0.70;;;;;;;23.92;39.82;97993.78;4999013;28;20030;-73
2022/09/18 07:38:28;;;;;;;1.00;0.60;;;;;;;23.94;39.56;97989.88;4966280;28;20531;-74
2022/09/18 07:40:53;;;;;;;4.63;0.68;;;;;;;23.87;39.20;97993.63;4981448;28;20046;-73
2022/09/18 07:43:19;;;;;;;1.40;0.70;;;;;;;23.89;38.74;98016.34;4966244;28;20026;-75
2022/09/18 07:45:44;;;;;;;1.40;0.70;;;;;;;23.88;38.61;98012.06;4965675;28;20049;-74
2022/09/18 07:48:10;;;;;;;1.83;0.60;;;;;;;23.90;38.29;98009.19;5016038;28;20330;-75
2022/09/18 07:50:35;;;;;;;3.63;3.03;;;;;;;24.15;47.79;98022.47;4982139;28;20034;-74
2022/09/18 07:53:02;;;;;;;1.52;0.75;;;;;;;24.65;43.87;98021.47;4998430;28;20062;-74
2022/09/18 07:55:28;;;;;;;10.05;8.15;;;;;;;25.24;44.04;98021.66;4999026;28;20034;-73
2022/09/18 07:57:58;;;;;;;11.88;9.38;;;;;;;25.86;43.85;98023.13;4998070;28;20053;-72
2022/09/18 08:00:24;;;;;;;14.15;9.10;;;;;;;26.39;43.06;98010.59;4966092;28;20061;-74
2022/09/18 08:02:50;;;;;;;12.75;8.88;;;;;;;26.92;41.58;98009.50;5015751;28;20117;-73
2022/09/18 08:05:15;;;;;;;11.18;8.18;;;;;;;27.44;41.80;98000.47;4998299;28;20114;-72
2022/09/18 08:07:41;;;;;;;17.05;7.97;;;;;;;27.91;40.46;97994.72;4981995;28;20097;-73
2022/09/18 08:10:07;;;;;;;10.82;5.90;;;;;;;28.15;39.99;97998.00;4998140;28;20030;-74
2022/09/18 08:12:32;;;;;;;12.85;5.40;;;;;;;28.43;39.08;98003.41;4964701;28;20501;-72
2022/09/18 08:14:58;;;;;;;10.65;8.30;;;;;;;28.61;37.69;98005.81;5015533;28;20029;-75
2022/09/18 08:17:24;;;;;;;6.47;5.05;;;;;;;28.82;36.93;98020.25;4966080;28;20465;-73
2022/09/18 08:19:50;;;;;;;9.18;4.50;;;;;;;29.05;35.13;98027.19;4981735;28;20479;-73
2022/09/18 08:22:15;;;;;;;8.25;3.80;;;;;;;29.16;34.86;98027.28;5015410;28;20030;-76
2022/09/18 08:24:41;;;;;;;5.80;3.00;;;;;;;29.16;33.10;98032.66;4981539;28;20072;-73
2022/09/18 08:27:06;;;;;;;2.58;2.15;;;;;;;29.07;31.33;98015.38;4981611;28;20039;-74
2022/09/18 08:29:32;;;;;;;4.18;2.03;;;;;;;29.41;30.56;98013.25;5014942;28;20050;-75
2022/09/18 08:31:57;;;;;;;3.58;1.52;;;;;;;30.04;29.33;98021.50;4965177;28;20404;-74
2022/09/18 08:34:23;;;;;;;2.58;1.60;;;;;;;30.99;28.04;98020.50;4981177;28;20029;-73
2022/09/18 08:36:48;;;;;;;1.98;1.33;;;;;;;31.58;26.62;98034.56;4965205;28;20030;-73
2022/09/18 08:39:14;;;;;;;2.30;1.70;;;;;;;31.92;26.05;98018.56;4965214;28;20116;-74
2022/09/18 08:42:05;;;;;;;1.80;1.23;;;;;;;32.98;24.92;98030.28;4997645;28;20049;-73
2022/09/18 08:44:38;;;;;;;2.20;1.17;;;;;;;33.88;23.27;98025.50;4916823;29;20051;-73
2022/09/18 08:47:09;;;;;;;2.08;1.42;;;;;;;33.54;23.72;98021.75;4885581;29;20048;-73
2022/09/18 08:49:36;;;;;;;5.07;1.23;;;;;;;33.14;24.15;98034.47;4900212;29;20083;-74
2022/09/18 08:52:25;;;;;;;1.42;0.93;;;;;;;32.74;24.70;98040.97;4900593;29;20036;-73
2022/09/18 08:55:22;;;;;;;3.10;1.00;;;;;;;32.39;24.18;98032.75;4885711;29;20509;-73
2022/09/18 08:57:52;;;;;;;;;;;;;;;32.08;24.42;98045.50;4823600;29;20535;-73
2022/09/18 09:00:18;;;;;;;4.35;1.13;;;;;;;31.75;25.03;98050.44;4808207;29;19920;-74
2022/09/18 09:02:53;;;;;;;3.30;1.00;;;;;;;31.33;24.91;98055.03;4808062;29;20495;-73
2022/09/18 09:05:26;;;;;;;2.25;1.00;;;;;;;30.97;25.96;98062.28;4808017;29;20073;-74
2022/09/18 09:08:10;;;;;;;1.40;0.90;;;;;;;30.65;26.16;98063.25;4823088;29;20050;-72
2022/09/18 09:10:57;;;;;;;4.72;1.30;;;;;;;30.24;26.57;98071.91;4823299;29;20035;-74
2022/09/18 09:13:48;;;;;;;2.42;1.00;;;;;;;29.88;26.88;98073.59;4807767;29;20046;-74
2022/09/18 09:16:31;;;;;;;1.67;0.90;;;;;;;29.50;27.45;98062.81;4823175;29;20045;-73
2022/09/18 09:19:31;;;;;;;0.95;0.75;;;;;;;29.25;27.58;98076.03;4808277;29;20506;-75
2022/09/18 09:22:06;;;;;;;2.05;0.98;;;;;;;29.00;27.85;98077.38;4884698;29;20557;-74
2022/09/18 09:25:01;;;;;;;1.95;0.88;;;;;;;28.69;28.15;98069.00;4915963;29;20058;-73
2022/09/18 09:27:30;;;;;;;1.45;0.70;;;;;;;28.52;28.54;98066.34;4841153;29;20248;-73
2022/09/18 09:30:12;;;;;;;1.42;0.60;;;;;;;28.29;28.50;98065.53;4822655;29;20624;-75
2022/09/18 09:32:41;;;;;;;2.15;0.82;;;;;;;28.07;28.47;98067.34;4794344;29;20047;-73
2022/09/18 09:35:35;;;;;;;0.80;0.60;;;;;;;27.96;28.67;98061.06;4836513;29;20069;-73
2022/09/18 09:38:13;;;;;;;1.25;0.60;;;;;;;27.83;28.55;98058.69;4867659;29;20048;-73
2022/09/18 09:40:42;;;;;;;1.58;0.50;;;;;;;27.71;28.73;98072.19;4866970;29;20045;-74
2022/09/18 09:43:25;;;;;;;1.13;0.60;;;;;;;27.62;28.44;98077.13;4865822;29;20028;-73
2022/09/18 09:45:51;;;;;;;0.82;0.50;;;;;;;27.56;28.51;98080.78;4866711;29;20048;-74
2022/09/18 09:48:29;;;;;;;1.35;0.55;;;;;;;27.50;28.50;98084.44;4865527;29;20029;-73
2022/09/18 09:50:58;;;;;;;1.17;0.43;;;;;;;27.38;27.93;98082.66;4880692;29;20049;-74
2022/09/18 09:53:24;;;;;;;1.60;0.50;;;;;;;27.38;27.74;98076.47;4865041;29;20508;-73
2022/09/18 09:56:08;;;;;;;1.38;0.80;;;;;;;27.36;27.98;98070.56;4865216;29;20040;-73
2022/09/18 09:58:52;;;;;;;0.50;0.45;;;;;;;27.40;28.48;98075.16;4896327;29;20059;-77
2022/09/18 10:01:38;;;;;;;2.08;0.70;;;;;;;27.40;28.24;98072.47;4895957;29;20032;-73
2022/09/18 10:04:31;;;;;;;1.90;0.95;;;;;;;27.42;28.08;98089.16;4912544;28;20047;-72
2022/09/18 10:07:14;;;;;;;5.63;0.95;;;;;;;27.48;28.25;98075.84;4973435;28;20538;-73
2022/09/18 10:09:57;;;;;;;1.83;1.00;;;;;;;27.48;28.36;98071.28;4958032;28;20062;-73
2022/09/18 10:12:40;;;;;;;2.15;0.70;;;;;;;27.52;28.54;98064.38;4973475;28;20026;-73
2022/09/18 10:15:12;;;;;;;3.03;0.85;;;;;;;27.66;28.79;98072.91;4973162;28;20035;-73
2022/09/18 10:17:38;;;;;;;1.88;0.82;;;;;;;27.70;28.66;98065.19;4957446;28;20058;-74
2022/09/18 10:20:04;;;;;;;2.10;0.63;;;;;;;27.83;28.92;98062.16;4941194;28;20030;-74
2022/09/18 10:22:30;;;;;;;1.05;0.60;;;;;;;28.10;28.56;98075.75;4956996;28;20122;-73
2022/09/18 10:25:06;;;;;;;1.60;0.90;;;;;;;28.49;27.72;98062.28;4973112;28;20038;-73
2022/09/18 10:27:32;;;;;;;3.05;0.80;;;;;;;28.79;27.98;98089.78;4941040;28;20031;-72
2022/09/18 10:29:58;;;;;;;1.05;0.60;;;;;;;29.18;27.08;98082.38;4949322;28;20050;-73
2022/09/18 10:32:37;;;;;;;3.13;1.50;;;;;;;29.50;32.65;98099.63;4975487;28;20042;-77
2022/09/18 10:35:30;;;;;;;1.95;1.17;;;;;;;29.76;30.92;98103.31;4992097;28;20457;-72
2022/09/18 10:37:56;;;;;;;1.60;1.10;;;;;;;29.86;29.99;98099.97;4993321;28;20030;-72
2022/09/18 10:40:30;;;;;;;3.25;0.82;;;;;;;29.97;28.59;98098.94;4959847;28;20037;-72
2022/09/18 10:42:55;;;;;;;1.92;0.80;;;;;;;30.19;27.96;98089.91;4959988;28;20033;-74
2022/09/18 10:45:28;;;;;;;1.52;0.60;;;;;;;30.32;26.47;98081.38;4961888;28;20038;-74
2022/09/18 10:48:05;;;;;;;1.85;0.50;;;;;;;30.52;25.58;98093.34;4996149;28;20046;-75
2022/09/18 10:50:30;;;;;;;2.10;0.60;;;;;;;30.53;27.40;98087.69;4997710;28;20023;-74
2022/09/18 10:52:56;;;;;;;4.05;1.00;;;;;;;30.54;27.48;98094.72;4975107;28;20050;-76
2022/09/18 10:55:26;;;;;;;3.90;0.80;;;;;;;30.51;26.88;98097.13;4975739;28;20474;-77
2022/09/18 10:58:13;;;;;;;7.18;0.80;;;;;;;30.61;25.69;98097.16;4982996;28;20037;-79
2022/09/18 11:00:42;;;;;;;4.35;1.02;;;;;;;30.40;22.29;98107.03;4985650;28;20034;-76
2022/09/18 11:03:29;;;;;;;1.70;0.63;;;;;;;30.06;23.44;98110.84;5005714;28;20030;-79
2022/09/18 11:06:01;;;;;;;1.45;0.63;;;;;;;29.94;21.92;98105.66;5004232;28;20025;-77
2022/09/18 11:08:30;;;;;;;1.58;0.60;;;;;;;29.86;22.10;98119.59;4971706;28;20113;-86
2022/09/18 11:11:06;;;;;;;1.05;0.60;;;;;;;29.62;21.92;98111.03;4987846;28;20545;-87
2022/09/18 11:13:31;;;;;;;1.27;0.75;;;;;;;29.48;22.67;98099.09;4971487;28;20030;-86
2022/09/18 11:15:58;;;;;;;1.05;0.60;;;;;;;29.38;24.15;98110.53;4973684;28;20509;-89
2022/09/18 11:18:24;;;;;;;1.42;0.65;;;;;;;29.31;23.63;98108.06;4988006;28;20019;-88
2022/09/18 11:20:50;;;;;;;1.48;0.90;;;;;;;29.15;22.58;98122.41;4990598;28;20034;-86
2022/09/18 11:23:28;;;;;;;2.00;1.23;;;;;;;29.02;24.20;98121.72;4971318;28;20125;-82
2022/09/18 11:26:18;;;;;;;3.05;1.10;;;;;;;29.00;25.47;98121.19;5006633;28;20502;-74
2022/09/18 11:29:16;;;;;;;2.50;1.10;;;;;;;28.97;25.00;98123.53;5000496;28;20030;-77
2022/09/18 11:31:41;;;;;;;2.50;0.60;;;;;;;28.88;22.85;98123.19;4983286;28;20061;-72
2022/09/18 11:34:38;;;;;;;4.30;1.20;;;;;;;28.88;25.36;98132.03;5010818;28;20470;-73
2022/09/18 11:37:07;;;;;;;9.20;1.52;;;;;;;28.78;26.24;98133.78;4933768;29;20043;-73
2022/09/18 11:39:44;;;;;;;11.30;3.47;;;;;;;28.85;25.22;98134.44;4901351;29;20035;-74
2022/09/18 11:42:13;;;;;;;9.13;6.28;;;;;;;28.85;25.24;98127.16;4933005;29;20035;-74
2022/09/18 11:44:39;;;;;;;5.78;2.95;;;;;;;28.78;23.93;98126.56;4910229;29;20693;-75
2022/09/18 11:47:10;;;;;;;13.73;3.97;;;;;;;28.70;25.28;98137.72;4898948;29;20075;-73